Portada
METAR-TAF:

METAR-TAF

Aeropuertos :

Tabuk, Arabia Saudita

latitud: 28-22N, longitud: 036-36E, altitud: 778 m

Observación

El informe se hizo hace 48 minutos, a las 10:00 UTC
Viento 9 kt del este
Temperatura 33°C
Humedad 11%
Presión 1014 hPa
Visibilidad 10 km o más
sin nubes por debajo de 1500 m y sin presencia de cumulonimbus.

METAR: OETB 261000Z 09009KT CAVOK 33/M01 Q1014 NOSIG

Hora: 13:48 (10:48 UTC)

Pronóstico

El informe se hizo hace 11 horas y 48 minutos, a las 23:00 UTC
Pronóstico válido del 26 a las 00 UTC al 27 a las 06 UTC
Viento 3 kt con dirección variable
Visibilidad: 7000 m
Evolucionando progresivamente
del 26 a las 08 UTC al 26 a las 10 UTC
Viento 10 kt del este
Evolucionando progresivamente
del 26 a las 18 UTC al 26 a las 20 UTC
Viento 12 kt del oeste-suroeste

TAF: OETB 252300Z 2600/2706 VRB03KT 7000 NSC BECMG 2608/2610 08010KT BECMG 2618/2620 24012KT

Observaciones y pronósticos meteorológicos de más de 4000 aeropuertos (mensajes METAR y TAF).

Los puntos amarillos y rojos representan las estaciones disponibles.

Ponga el ratón en el punto deseado para ver el nombre de la estación.

Haga clic para ver las observaciones y los pronósticos meteorológicos.

Para cambiar el mapa : haga clic en los botones verdes con una cruz de color negro para hacer un zoom, en el botón verde con un guión para alejar o en las flechas verdes para mapas adyacentes.


METAR-TAF: